sensor_id;sensor_type;location;lat;lon;timestamp;P1;durP1;ratioP1;P2;durP2;ratioP2
54899;SDS011;40801;41.924;25.562;2022-07-23T00:01:27;12.30;;;11.70;;
54899;SDS011;40801;41.924;25.562;2022-07-23T00:03:53;12.70;;;11.57;;
54899;SDS011;40801;41.924;25.562;2022-07-23T00:06:19;12.80;;;11.98;;
54899;SDS011;40801;41.924;25.562;2022-07-23T00:08:45;11.18;;;10.18;;
54899;SDS011;40801;41.924;25.562;2022-07-23T00:11:11;11.07;;;10.38;;
54899;SDS011;40801;41.924;25.562;2022-07-23T00:13:36;12.77;;;11.95;;
54899;SDS011;40801;41.924;25.562;2022-07-23T00:16:02;12.90;;;12.20;;
54899;SDS011;40801;41.924;25.562;2022-07-23T00:18:27;11.13;;;10.48;;
54899;SDS011;40801;41.924;25.562;2022-07-23T00:20:53;12.02;;;11.00;;
54899;SDS011;40801;41.924;25.562;2022-07-23T00:23:18;13.32;;;12.55;;
54899;SDS011;40801;41.924;25.562;2022-07-23T00:25:44;12.15;;;11.30;;
54899;SDS011;40801;41.924;25.562;2022-07-23T00:28:10;12.18;;;11.48;;
54899;SDS011;40801;41.924;25.562;2022-07-23T00:30:36;12.38;;;11.55;;
54899;SDS011;40801;41.924;25.562;2022-07-23T00:33:03;11.73;;;10.95;;
54899;SDS011;40801;41.924;25.562;2022-07-23T00:35:32;12.63;;;11.80;;
54899;SDS011;40801;41.924;25.562;2022-07-23T00:38:00;11.07;;;10.48;;
54899;SDS011;40801;41.924;25.562;2022-07-23T00:40:27;11.70;;;11.00;;
54899;SDS011;40801;41.924;25.562;2022-07-23T00:42:53;13.02;;;12.18;;
54899;SDS011;40801;41.924;25.562;2022-07-23T00:45:19;11.70;;;10.80;;
54899;SDS011;40801;41.924;25.562;2022-07-23T00:47:45;13.77;;;12.57;;
54899;SDS011;40801;41.924;25.562;2022-07-23T00:50:12;14.18;;;12.95;;
54899;SDS011;40801;41.924;25.562;2022-07-23T00:52:38;12.35;;;11.48;;
54899;SDS011;40801;41.924;25.562;2022-07-23T00:55:05;13.50;;;12.60;;
54899;SDS011;40801;41.924;25.562;2022-07-23T00:57:31;13.88;;;12.98;;
54899;SDS011;40801;41.924;25.562;2022-07-23T00:59:57;12.15;;;11.27;;
54899;SDS011;40801;41.924;25.562;2022-07-23T01:02:23;11.65;;;10.95;;
54899;SDS011;40801;41.924;25.562;2022-07-23T01:04:49;13.18;;;12.23;;
54899;SDS011;40801;41.924;25.562;2022-07-23T01:07:15;12.20;;;11.60;;
54899;SDS011;40801;41.924;25.562;2022-07-23T01:09:42;12.45;;;11.57;;
54899;SDS011;40801;41.924;25.562;2022-07-23T01:12:08;13.57;;;12.60;;
54899;SDS011;40801;41.924;25.562;2022-07-23T01:14:34;12.27;;;11.48;;
54899;SDS011;40801;41.924;25.562;2022-07-23T01:16:59;13.05;;;12.00;;
54899;SDS011;40801;41.924;25.562;2022-07-23T01:19:25;12.30;;;11.57;;
54899;SDS011;40801;41.924;25.562;2022-07-23T01:21:51;11.98;;;11.10;;
54899;SDS011;40801;41.924;25.562;2022-07-23T01:24:18;12.07;;;11.43;;
54899;SDS011;40801;41.924;25.562;2022-07-23T01:26:47;12.90;;;12.20;;
54899;SDS011;40801;41.924;25.562;2022-07-23T01:29:14;12.80;;;12.10;;
54899;SDS011;40801;41.924;25.562;2022-07-23T01:31:40;12.90;;;12.10;;
54899;SDS011;40801;41.924;25.562;2022-07-23T01:34:05;13.60;;;12.77;;
54899;SDS011;40801;41.924;25.562;2022-07-23T01:36:32;11.38;;;10.68;;
54899;SDS011;40801;41.924;25.562;2022-07-23T01:38:58;13.90;;;12.88;;
54899;SDS011;40801;41.924;25.562;2022-07-23T01:41:23;9.73;;;9.20;;
54899;SDS011;40801;41.924;25.562;2022-07-23T01:43:49;13.05;;;12.20;;
54899;SDS011;40801;41.924;25.562;2022-07-23T01:46:14;12.90;;;12.27;;
54899;SDS011;40801;41.924;25.562;2022-07-23T01:48:40;13.30;;;12.48;;
54899;SDS011;40801;41.924;25.562;2022-07-23T01:51:05;12.90;;;12.02;;
54899;SDS011;40801;41.924;25.562;2022-07-23T01:53:31;12.35;;;11.65;;
54899;SDS011;40801;41.924;25.562;2022-07-23T01:55:57;12.32;;;11.73;;
54899;SDS011;40801;41.924;25.562;2022-07-23T01:58:24;11.80;;;11.20;;
54899;SDS011;40801;41.924;25.562;2022-07-23T02:00:50;11.02;;;10.43;;
54899;SDS011;40801;41.924;25.562;2022-07-23T02:03:15;11.35;;;10.85;;
54899;SDS011;40801;41.924;25.562;2022-07-23T02:05:41;12.88;;;12.18;;
54899;SDS011;40801;41.924;25.562;2022-07-23T02:08:06;11.70;;;11.00;;
54899;SDS011;40801;41.924;25.562;2022-07-23T02:10:32;11.57;;;10.95;;
54899;SDS011;40801;41.924;25.562;2022-07-23T02:12:57;13.52;;;12.82;;
54899;SDS011;40801;41.924;25.562;2022-07-23T02:15:22;13.00;;;12.30;;
54899;SDS011;40801;41.924;25.562;2022-07-23T02:17:48;12.38;;;11.57;;
54899;SDS011;40801;41.924;25.562;2022-07-23T02:20:14;12.02;;;11.43;;
54899;SDS011;40801;41.924;25.562;2022-07-23T02:22:39;12.27;;;11.68;;
54899;SDS011;40801;41.924;25.562;2022-07-23T02:25:05;12.30;;;11.80;;
54899;SDS011;40801;41.924;25.562;2022-07-23T02:27:32;12.63;;;11.93;;
54899;SDS011;40801;41.924;25.562;2022-07-23T02:29:57;12.23;;;11.52;;
54899;SDS011;40801;41.924;25.562;2022-07-23T02:32:23;11.82;;;11.23;;
54899;SDS011;40801;41.924;25.562;2022-07-23T02:34:49;14.20;;;12.88;;
54899;SDS011;40801;41.924;25.562;2022-07-23T02:37:14;9.18;;;8.60;;
54899;SDS011;40801;41.924;25.562;2022-07-23T02:39:40;12.90;;;12.02;;
54899;SDS011;40801;41.924;25.562;2022-07-23T02:42:06;13.07;;;12.32;;
54899;SDS011;40801;41.924;25.562;2022-07-23T02:44:32;12.20;;;11.48;;
54899;SDS011;40801;41.924;25.562;2022-07-23T02:46:57;13.27;;;12.52;;
54899;SDS011;40801;41.924;25.562;2022-07-23T02:49:22;14.07;;;13.10;;
54899;SDS011;40801;41.924;25.562;2022-07-23T02:51:48;12.38;;;11.60;;
54899;SDS011;40801;41.924;25.562;2022-07-23T02:54:13;13.15;;;12.27;;
54899;SDS011;40801;41.924;25.562;2022-07-23T02:56:39;13.23;;;12.43;;
54899;SDS011;40801;41.924;25.562;2022-07-23T02:59:04;11.85;;;11.25;;
54899;SDS011;40801;41.924;25.562;2022-07-23T03:01:29;12.13;;;11.43;;
54899;SDS011;40801;41.924;25.562;2022-07-23T03:03:55;13.07;;;12.40;;
54899;SDS011;40801;41.924;25.562;2022-07-23T03:06:20;12.88;;;12.18;;
54899;SDS011;40801;41.924;25.562;2022-07-23T03:08:46;12.82;;;12.13;;
54899;SDS011;40801;41.924;25.562;2022-07-23T03:11:11;12.52;;;11.85;;
54899;SDS011;40801;41.924;25.562;2022-07-23T03:13:37;13.27;;;12.63;;
54899;SDS011;40801;41.924;25.562;2022-07-23T03:16:03;13.55;;;12.60;;
54899;SDS011;40801;41.924;25.562;2022-07-23T03:18:29;12.35;;;11.63;;
54899;SDS011;40801;41.924;25.562;2022-07-23T03:20:54;13.73;;;13.02;;
54899;SDS011;40801;41.924;25.562;2022-07-23T03:23:20;12.23;;;11.63;;
54899;SDS011;40801;41.924;25.562;2022-07-23T03:25:45;13.23;;;12.55;;
54899;SDS011;40801;41.924;25.562;2022-07-23T03:28:13;12.73;;;11.88;;
54899;SDS011;40801;41.924;25.562;2022-07-23T03:33:08;12.65;;;11.85;;
54899;SDS011;40801;41.924;25.562;2022-07-23T03:35:34;11.63;;;10.82;;
54899;SDS011;40801;41.924;25.562;2022-07-23T03:37:59;11.50;;;10.60;;
54899;SDS011;40801;41.924;25.562;2022-07-23T03:40:24;11.90;;;11.07;;
54899;SDS011;40801;41.924;25.562;2022-07-23T03:42:50;12.32;;;11.50;;
54899;SDS011;40801;41.924;25.562;2022-07-23T03:45:15;13.50;;;12.50;;
54899;SDS011;40801;41.924;25.562;2022-07-23T03:47:41;11.57;;;10.88;;
54899;SDS011;40801;41.924;25.562;2022-07-23T03:50:06;11.32;;;10.63;;
54899;SDS011;40801;41.924;25.562;2022-07-23T03:52:33;11.40;;;10.50;;
54899;SDS011;40801;41.924;25.562;2022-07-23T03:54:59;13.38;;;12.45;;
54899;SDS011;40801;41.924;25.562;2022-07-23T03:57:24;12.57;;;11.98;;
54899;SDS011;40801;41.924;25.562;2022-07-23T03:59:50;14.32;;;13.05;;
54899;SDS011;40801;41.924;25.562;2022-07-23T04:02:15;13.35;;;12.55;;
54899;SDS011;40801;41.924;25.562;2022-07-23T04:04:41;13.88;;;12.80;;
54899;SDS011;40801;41.924;25.562;2022-07-23T04:07:06;12.82;;;11.93;;
54899;SDS011;40801;41.924;25.562;2022-07-23T04:09:32;11.75;;;11.05;;
54899;SDS011;40801;41.924;25.562;2022-07-23T04:11:58;12.40;;;11.60;;
54899;SDS011;40801;41.924;25.562;2022-07-23T04:14:24;13.85;;;12.65;;
54899;SDS011;40801;41.924;25.562;2022-07-23T04:16:49;13.13;;;12.15;;
54899;SDS011;40801;41.924;25.562;2022-07-23T04:19:14;11.90;;;11.15;;
54899;SDS011;40801;41.924;25.562;2022-07-23T04:21:40;12.70;;;12.02;;
54899;SDS011;40801;41.924;25.562;2022-07-23T04:24:05;11.20;;;10.52;;
54899;SDS011;40801;41.924;25.562;2022-07-23T04:26:31;11.55;;;10.68;;
54899;SDS011;40801;41.924;25.562;2022-07-23T04:28:56;12.98;;;12.15;;
54899;SDS011;40801;41.924;25.562;2022-07-23T04:31:22;9.77;;;8.88;;
54899;SDS011;40801;41.924;25.562;2022-07-23T04:33:47;18.02;;;14.77;;
54899;SDS011;40801;41.924;25.562;2022-07-23T04:36:12;14.98;;;13.55;;
54899;SDS011;40801;41.924;25.562;2022-07-23T04:38:38;12.48;;;11.70;;
54899;SDS011;40801;41.924;25.562;2022-07-23T04:41:03;12.00;;;11.20;;
54899;SDS011;40801;41.924;25.562;2022-07-23T04:43:29;14.20;;;13.15;;
54899;SDS011;40801;41.924;25.562;2022-07-23T04:45:54;14.75;;;13.73;;
54899;SDS011;40801;41.924;25.562;2022-07-23T04:48:20;12.75;;;11.63;;
54899;SDS011;40801;41.924;25.562;2022-07-23T04:50:45;13.15;;;12.15;;
54899;SDS011;40801;41.924;25.562;2022-07-23T04:53:11;14.32;;;13.30;;
54899;SDS011;40801;41.924;25.562;2022-07-23T04:55:36;15.43;;;14.35;;
54899;SDS011;40801;41.924;25.562;2022-07-23T04:58:01;11.38;;;10.48;;
54899;SDS011;40801;41.924;25.562;2022-07-23T05:00:27;14.15;;;13.25;;
54899;SDS011;40801;41.924;25.562;2022-07-23T05:02:52;15.82;;;14.77;;
54899;SDS011;40801;41.924;25.562;2022-07-23T05:05:17;16.27;;;14.90;;
54899;SDS011;40801;41.924;25.562;2022-07-23T05:07:43;16.55;;;14.20;;
54899;SDS011;40801;41.924;25.562;2022-07-23T05:10:08;14.75;;;13.57;;
54899;SDS011;40801;41.924;25.562;2022-07-23T05:12:34;13.80;;;13.00;;
54899;SDS011;40801;41.924;25.562;2022-07-23T05:14:59;13.18;;;12.30;;
54899;SDS011;40801;41.924;25.562;2022-07-23T05:17:25;13.30;;;12.48;;
54899;SDS011;40801;41.924;25.562;2022-07-23T05:19:50;15.60;;;14.40;;
54899;SDS011;40801;41.924;25.562;2022-07-23T05:22:15;13.43;;;12.63;;
54899;SDS011;40801;41.924;25.562;2022-07-23T05:24:41;13.18;;;12.32;;
54899;SDS011;40801;41.924;25.562;2022-07-23T05:27:08;14.07;;;13.13;;
54899;SDS011;40801;41.924;25.562;2022-07-23T05:29:33;13.93;;;12.88;;
54899;SDS011;40801;41.924;25.562;2022-07-23T05:31:59;13.70;;;12.85;;
54899;SDS011;40801;41.924;25.562;2022-07-23T05:34:24;13.57;;;12.63;;
54899;SDS011;40801;41.924;25.562;2022-07-23T05:36:50;14.25;;;13.13;;
54899;SDS011;40801;41.924;25.562;2022-07-23T05:39:15;13.40;;;12.23;;
54899;SDS011;40801;41.924;25.562;2022-07-23T05:41:41;14.90;;;13.65;;
54899;SDS011;40801;41.924;25.562;2022-07-23T05:44:06;13.88;;;12.55;;
54899;SDS011;40801;41.924;25.562;2022-07-23T05:46:31;14.02;;;13.02;;
54899;SDS011;40801;41.924;25.562;2022-07-23T05:48:57;13.30;;;12.30;;
54899;SDS011;40801;41.924;25.562;2022-07-23T05:51:23;14.00;;;12.98;;
54899;SDS011;40801;41.924;25.562;2022-07-23T05:53:49;15.40;;;14.40;;
54899;SDS011;40801;41.924;25.562;2022-07-23T05:56:15;14.68;;;13.55;;
54899;SDS011;40801;41.924;25.562;2022-07-23T05:58:41;16.85;;;15.57;;
54899;SDS011;40801;41.924;25.562;2022-07-23T06:01:07;12.40;;;11.50;;
54899;SDS011;40801;41.924;25.562;2022-07-23T06:03:32;13.45;;;12.52;;
54899;SDS011;40801;41.924;25.562;2022-07-23T06:05:57;14.55;;;13.43;;
54899;SDS011;40801;41.924;25.562;2022-07-23T06:08:23;13.80;;;13.00;;
54899;SDS011;40801;41.924;25.562;2022-07-23T06:10:48;14.18;;;13.00;;
54899;SDS011;40801;41.924;25.562;2022-07-23T06:13:13;14.35;;;13.45;;
54899;SDS011;40801;41.924;25.562;2022-07-23T06:15:39;10.52;;;9.65;;
54899;SDS011;40801;41.924;25.562;2022-07-23T06:18:04;14.15;;;13.23;;
54899;SDS011;40801;41.924;25.562;2022-07-23T06:20:30;12.70;;;11.68;;
54899;SDS011;40801;41.924;25.562;2022-07-23T06:22:55;14.63;;;13.50;;
54899;SDS011;40801;41.924;25.562;2022-07-23T06:25:21;14.68;;;13.57;;
54899;SDS011;40801;41.924;25.562;2022-07-23T06:27:46;13.05;;;12.05;;
54899;SDS011;40801;41.924;25.562;2022-07-23T06:30:12;14.82;;;13.82;;
54899;SDS011;40801;41.924;25.562;2022-07-23T06:32:39;12.88;;;12.23;;
54899;SDS011;40801;41.924;25.562;2022-07-23T06:35:04;12.82;;;11.93;;
54899;SDS011;40801;41.924;25.562;2022-07-23T06:37:30;13.13;;;12.13;;
54899;SDS011;40801;41.924;25.562;2022-07-23T06:39:55;14.10;;;13.18;;
54899;SDS011;40801;41.924;25.562;2022-07-23T06:42:21;12.00;;;11.10;;
54899;SDS011;40801;41.924;25.562;2022-07-23T06:44:46;12.50;;;11.77;;
54899;SDS011;40801;41.924;25.562;2022-07-23T06:47:11;12.32;;;11.52;;
54899;SDS011;40801;41.924;25.562;2022-07-23T06:49:37;12.48;;;11.55;;
54899;SDS011;40801;41.924;25.562;2022-07-23T06:52:02;12.68;;;11.95;;
54899;SDS011;40801;41.924;25.562;2022-07-23T06:54:28;12.32;;;11.40;;
54899;SDS011;40801;41.924;25.562;2022-07-23T06:56:53;11.27;;;10.57;;
54899;SDS011;40801;41.924;25.562;2022-07-23T06:59:18;12.75;;;11.95;;
54899;SDS011;40801;41.924;25.562;2022-07-23T07:01:44;14.80;;;13.65;;
54899;SDS011;40801;41.924;25.562;2022-07-23T07:04:09;12.32;;;11.35;;
54899;SDS011;40801;41.924;25.562;2022-07-23T07:06:35;12.57;;;11.77;;
54899;SDS011;40801;41.924;25.562;2022-07-23T07:09:00;13.52;;;12.25;;
54899;SDS011;40801;41.924;25.562;2022-07-23T07:11:25;11.80;;;10.90;;
54899;SDS011;40801;41.924;25.562;2022-07-23T07:13:51;13.10;;;12.02;;
54899;SDS011;40801;41.924;25.562;2022-07-23T07:16:16;12.30;;;11.60;;
54899;SDS011;40801;41.924;25.562;2022-07-23T07:18:42;11.35;;;10.57;;
54899;SDS011;40801;41.924;25.562;2022-07-23T07:21:07;11.35;;;10.43;;
54899;SDS011;40801;41.924;25.562;2022-07-23T07:23:33;11.50;;;10.77;;
54899;SDS011;40801;41.924;25.562;2022-07-23T07:25:58;11.82;;;11.00;;
54899;SDS011;40801;41.924;25.562;2022-07-23T07:28:23;11.45;;;10.75;;
54899;SDS011;40801;41.924;25.562;2022-07-23T07:30:49;12.63;;;11.73;;
54899;SDS011;40801;41.924;25.562;2022-07-23T07:33:14;11.57;;;10.77;;
54899;SDS011;40801;41.924;25.562;2022-07-23T07:35:40;10.88;;;10.18;;
54899;SDS011;40801;41.924;25.562;2022-07-23T07:38:05;11.55;;;10.68;;
54899;SDS011;40801;41.924;25.562;2022-07-23T07:40:31;12.45;;;11.73;;
54899;SDS011;40801;41.924;25.562;2022-07-23T07:42:56;11.68;;;10.98;;
54899;SDS011;40801;41.924;25.562;2022-07-23T07:45:22;9.43;;;8.60;;
54899;SDS011;40801;41.924;25.562;2022-07-23T07:47:49;11.52;;;10.90;;
54899;SDS011;40801;41.924;25.562;2022-07-23T07:50:16;12.43;;;11.52;;
54899;SDS011;40801;41.924;25.562;2022-07-23T07:52:42;12.60;;;11.45;;
54899;SDS011;40801;41.924;25.562;2022-07-23T07:55:08;11.65;;;10.73;;
54899;SDS011;40801;41.924;25.562;2022-07-23T07:57:35;9.80;;;8.85;;
54899;SDS011;40801;41.924;25.562;2022-07-23T08:00:01;11.23;;;10.13;;
54899;SDS011;40801;41.924;25.562;2022-07-23T08:02:27;9.98;;;9.18;;
54899;SDS011;40801;41.924;25.562;2022-07-23T08:04:52;10.40;;;9.73;;
54899;SDS011;40801;41.924;25.562;2022-07-23T08:07:18;7.40;;;6.85;;
54899;SDS011;40801;41.924;25.562;2022-07-23T08:09:44;11.40;;;10.70;;
54899;SDS011;40801;41.924;25.562;2022-07-23T08:12:09;11.27;;;10.57;;
54899;SDS011;40801;41.924;25.562;2022-07-23T08:14:35;12.55;;;11.45;;
54899;SDS011;40801;41.924;25.562;2022-07-23T08:17:00;11.07;;;10.40;;
54899;SDS011;40801;41.924;25.562;2022-07-23T08:19:25;11.50;;;10.68;;
54899;SDS011;40801;41.924;25.562;2022-07-23T08:21:51;12.73;;;11.68;;
54899;SDS011;40801;41.924;25.562;2022-07-23T08:24:16;9.60;;;8.90;;
54899;SDS011;40801;41.924;25.562;2022-07-23T08:26:42;11.18;;;10.27;;
54899;SDS011;40801;41.924;25.562;2022-07-23T08:29:07;10.77;;;9.80;;
54899;SDS011;40801;41.924;25.562;2022-07-23T08:31:33;9.90;;;9.00;;
54899;SDS011;40801;41.924;25.562;2022-07-23T08:33:59;10.25;;;9.55;;
54899;SDS011;40801;41.924;25.562;2022-07-23T08:36:25;10.00;;;9.35;;
54899;SDS011;40801;41.924;25.562;2022-07-23T08:38:52;11.40;;;10.50;;
54899;SDS011;40801;41.924;25.562;2022-07-23T08:41:19;10.80;;;10.10;;
54899;SDS011;40801;41.924;25.562;2022-07-23T08:43:45;11.52;;;10.55;;
54899;SDS011;40801;41.924;25.562;2022-07-23T08:46:11;10.77;;;10.07;;
54899;SDS011;40801;41.924;25.562;2022-07-23T08:48:38;10.13;;;9.32;;
54899;SDS011;40801;41.924;25.562;2022-07-23T08:51:04;8.52;;;8.02;;
54899;SDS011;40801;41.924;25.562;2022-07-23T08:53:31;11.35;;;10.68;;
54899;SDS011;40801;41.924;25.562;2022-07-23T08:55:59;10.98;;;10.18;;
54899;SDS011;40801;41.924;25.562;2022-07-23T08:58:28;9.88;;;9.07;;
54899;SDS011;40801;41.924;25.562;2022-07-23T09:00:55;10.25;;;9.45;;
54899;SDS011;40801;41.924;25.562;2022-07-23T09:03:27;9.70;;;9.10;;
54899;SDS011;40801;41.924;25.562;2022-07-23T09:05:58;10.25;;;9.48;;
54899;SDS011;40801;41.924;25.562;2022-07-23T09:08:33;10.85;;;10.15;;
54899;SDS011;40801;41.924;25.562;2022-07-23T09:11:01;8.57;;;7.93;;
54899;SDS011;40801;41.924;25.562;2022-07-23T09:15:55;9.95;;;9.43;;
54899;SDS011;40801;41.924;25.562;2022-07-23T09:18:33;10.60;;;10.00;;
54899;SDS011;40801;41.924;25.562;2022-07-23T09:23:41;10.43;;;9.75;;
54899;SDS011;40801;41.924;25.562;2022-07-23T09:26:18;10.60;;;9.88;;
54899;SDS011;40801;41.924;25.562;2022-07-23T09:28:53;8.30;;;6.63;;
54899;SDS011;40801;41.924;25.562;2022-07-23T09:31:19;10.07;;;9.27;;
54899;SDS011;40801;41.924;25.562;2022-07-23T09:33:45;9.63;;;8.95;;
54899;SDS011;40801;41.924;25.562;2022-07-23T09:36:11;8.35;;;7.82;;
54899;SDS011;40801;41.924;25.562;2022-07-23T09:38:47;10.52;;;9.82;;
54899;SDS011;40801;41.924;25.562;2022-07-23T09:41:15;10.85;;;9.93;;
54899;SDS011;40801;41.924;25.562;2022-07-23T09:43:41;9.70;;;9.10;;
54899;SDS011;40801;41.924;25.562;2022-07-23T09:46:20;9.80;;;9.00;;
54899;SDS011;40801;41.924;25.562;2022-07-23T09:48:46;8.23;;;7.70;;
54899;SDS011;40801;41.924;25.562;2022-07-23T09:51:12;9.37;;;8.57;;
54899;SDS011;40801;41.924;25.562;2022-07-23T09:54:04;10.25;;;7.53;;
54899;SDS011;40801;41.924;25.562;2022-07-23T09:56:30;10.25;;;9.55;;
54899;SDS011;40801;41.924;25.562;2022-07-23T09:58:57;9.85;;;9.05;;
54899;SDS011;40801;41.924;25.562;2022-07-23T10:01:29;8.82;;;8.23;;
54899;SDS011;40801;41.924;25.562;2022-07-23T10:03:56;7.07;;;6.57;;
54899;SDS011;40801;41.924;25.562;2022-07-23T10:06:23;8.55;;;7.85;;
54899;SDS011;40801;41.924;25.562;2022-07-23T10:08:48;8.55;;;8.02;;
54899;SDS011;40801;41.924;25.562;2022-07-23T10:11:16;9.40;;;8.60;;
54899;SDS011;40801;41.924;25.562;2022-07-23T10:13:42;9.73;;;9.23;;
54899;SDS011;40801;41.924;25.562;2022-07-23T10:16:14;10.40;;;9.65;;
54899;SDS011;40801;41.924;25.562;2022-07-23T10:18:39;8.50;;;7.90;;
54899;SDS011;40801;41.924;25.562;2022-07-23T10:21:06;9.25;;;8.65;;
54899;SDS011;40801;41.924;25.562;2022-07-23T10:23:45;10.48;;;9.55;;
54899;SDS011;40801;41.924;25.562;2022-07-23T10:26:24;9.88;;;9.10;;
54899;SDS011;40801;41.924;25.562;2022-07-23T10:34:48;7.97;;;7.47;;
54899;SDS011;40801;41.924;25.562;2022-07-23T10:37:39;8.68;;;8.13;;
54899;SDS011;40801;41.924;25.562;2022-07-23T10:40:20;9.02;;;8.43;;
54899;SDS011;40801;41.924;25.562;2022-07-23T10:42:48;8.15;;;7.65;;
54899;SDS011;40801;41.924;25.562;2022-07-23T10:45:35;9.45;;;8.63;;
54899;SDS011;40801;41.924;25.562;2022-07-23T10:50:41;8.70;;;8.02;;
54899;SDS011;40801;41.924;25.562;2022-07-23T10:53:15;8.75;;;8.25;;
54899;SDS011;40801;41.924;25.562;2022-07-23T10:55:50;9.43;;;8.68;;
54899;SDS011;40801;41.924;25.562;2022-07-23T10:58:21;8.05;;;7.30;;
54899;SDS011;40801;41.924;25.562;2022-07-23T11:00:48;8.98;;;8.27;;
54899;SDS011;40801;41.924;25.562;2022-07-23T11:03:28;8.00;;;7.50;;
54899;SDS011;40801;41.924;25.562;2022-07-23T11:05:53;9.80;;;9.18;;
54899;SDS011;40801;41.924;25.562;2022-07-23T11:08:19;8.57;;;7.80;;
54899;SDS011;40801;41.924;25.562;2022-07-23T11:34:43;11.10;;;10.20;;
54899;SDS011;40801;41.924;25.562;2022-07-23T11:37:12;8.60;;;7.80;;
54899;SDS011;40801;41.924;25.562;2022-07-23T11:39:53;9.63;;;8.93;;
54899;SDS011;40801;41.924;25.562;2022-07-23T11:42:19;9.55;;;8.93;;
54899;SDS011;40801;41.924;25.562;2022-07-23T11:44:46;9.27;;;8.65;;
54899;SDS011;40801;41.924;25.562;2022-07-23T11:47:11;7.72;;;7.03;;
54899;SDS011;40801;41.924;25.562;2022-07-23T11:49:38;8.68;;;7.85;;
54899;SDS011;40801;41.924;25.562;2022-07-23T11:52:07;10.25;;;9.30;;
54899;SDS011;40801;41.924;25.562;2022-07-23T11:54:34;8.20;;;7.47;;
54899;SDS011;40801;41.924;25.562;2022-07-23T11:57:02;8.75;;;7.82;;
54899;SDS011;40801;41.924;25.562;2022-07-23T11:59:32;9.30;;;8.63;;
54899;SDS011;40801;41.924;25.562;2022-07-23T12:02:02;8.88;;;8.10;;
54899;SDS011;40801;41.924;25.562;2022-07-23T12:10:00;8.93;;;8.30;;
54899;SDS011;40801;41.924;25.562;2022-07-23T12:12:35;8.77;;;8.18;;
54899;SDS011;40801;41.924;25.562;2022-07-23T12:15:21;9.93;;;8.98;;
54899;SDS011;40801;41.924;25.562;2022-07-23T12:17:49;8.18;;;7.57;;
54899;SDS011;40801;41.924;25.562;2022-07-23T12:20:16;8.32;;;7.63;;
54899;SDS011;40801;41.924;25.562;2022-07-23T12:22:45;8.60;;;7.93;;
54899;SDS011;40801;41.924;25.562;2022-07-23T12:25:20;8.88;;;8.02;;
54899;SDS011;40801;41.924;25.562;2022-07-23T12:27:57;9.85;;;9.15;;
54899;SDS011;40801;41.924;25.562;2022-07-23T12:30:32;8.80;;;8.10;;
54899;SDS011;40801;41.924;25.562;2022-07-23T12:33:09;9.82;;;8.82;;
54899;SDS011;40801;41.924;25.562;2022-07-23T12:35:37;11.05;;;10.05;;
54899;SDS011;40801;41.924;25.562;2022-07-23T12:38:07;8.60;;;7.78;;
54899;SDS011;40801;41.924;25.562;2022-07-23T12:40:35;9.38;;;8.48;;
54899;SDS011;40801;41.924;25.562;2022-07-23T12:43:09;8.70;;;7.97;;
54899;SDS011;40801;41.924;25.562;2022-07-23T12:48:32;9.48;;;8.63;;
54899;SDS011;40801;41.924;25.562;2022-07-23T12:51:17;8.52;;;7.82;;
54899;SDS011;40801;41.924;25.562;2022-07-23T12:53:51;9.05;;;8.35;;
54899;SDS011;40801;41.924;25.562;2022-07-23T12:56:22;8.23;;;7.53;;
54899;SDS011;40801;41.924;25.562;2022-07-23T13:04:03;9.88;;;9.00;;
54899;SDS011;40801;41.924;25.562;2022-07-23T13:06:29;9.07;;;8.52;;
54899;SDS011;40801;41.924;25.562;2022-07-23T13:08:57;9.98;;;9.10;;
54899;SDS011;40801;41.924;25.562;2022-07-23T13:11:23;7.80;;;7.20;;
54899;SDS011;40801;41.924;25.562;2022-07-23T13:13:49;9.18;;;8.50;;
54899;SDS011;40801;41.924;25.562;2022-07-23T13:16:14;9.07;;;8.35;;
54899;SDS011;40801;41.924;25.562;2022-07-23T13:18:40;9.13;;;8.52;;
54899;SDS011;40801;41.924;25.562;2022-07-23T13:21:05;10.60;;;9.80;;
54899;SDS011;40801;41.924;25.562;2022-07-23T13:23:31;9.32;;;8.43;;
54899;SDS011;40801;41.924;25.562;2022-07-23T13:25:56;9.80;;;9.07;;
54899;SDS011;40801;41.924;25.562;2022-07-23T13:28:22;9.65;;;9.05;;
54899;SDS011;40801;41.924;25.562;2022-07-23T13:30:48;10.55;;;9.55;;
54899;SDS011;40801;41.924;25.562;2022-07-23T13:33:18;10.75;;;8.80;;
54899;SDS011;40801;41.924;25.562;2022-07-23T13:35:45;8.63;;;8.10;;
54899;SDS011;40801;41.924;25.562;2022-07-23T13:38:11;10.05;;;9.13;;
54899;SDS011;40801;41.924;25.562;2022-07-23T13:40:38;8.50;;;7.90;;
54899;SDS011;40801;41.924;25.562;2022-07-23T13:43:07;9.77;;;9.05;;
54899;SDS011;40801;41.924;25.562;2022-07-23T13:45:33;9.90;;;9.07;;
54899;SDS011;40801;41.924;25.562;2022-07-23T13:47:59;10.30;;;9.55;;
54899;SDS011;40801;41.924;25.562;2022-07-23T13:50:25;8.73;;;8.02;;
54899;SDS011;40801;41.924;25.562;2022-07-23T13:52:50;8.70;;;7.97;;
54899;SDS011;40801;41.924;25.562;2022-07-23T13:55:15;10.00;;;9.15;;
54899;SDS011;40801;41.924;25.562;2022-07-23T13:57:41;10.27;;;9.50;;
54899;SDS011;40801;41.924;25.562;2022-07-23T14:00:07;10.63;;;9.77;;
54899;SDS011;40801;41.924;25.562;2022-07-23T14:02:35;10.85;;;9.85;;
54899;SDS011;40801;41.924;25.562;2022-07-23T14:05:03;8.77;;;8.18;;
54899;SDS011;40801;41.924;25.562;2022-07-23T14:07:29;9.20;;;8.52;;
54899;SDS011;40801;41.924;25.562;2022-07-23T14:09:55;8.93;;;8.23;;
54899;SDS011;40801;41.924;25.562;2022-07-23T14:12:20;9.20;;;8.55;;
54899;SDS011;40801;41.924;25.562;2022-07-23T14:14:46;9.38;;;8.52;;
54899;SDS011;40801;41.924;25.562;2022-07-23T14:17:11;9.32;;;8.60;;
54899;SDS011;40801;41.924;25.562;2022-07-23T14:19:37;10.52;;;9.65;;
54899;SDS011;40801;41.924;25.562;2022-07-23T14:22:02;9.38;;;8.63;;
54899;SDS011;40801;41.924;25.562;2022-07-23T14:24:28;10.25;;;9.55;;
54899;SDS011;40801;41.924;25.562;2022-07-23T14:26:53;9.60;;;8.43;;
54899;SDS011;40801;41.924;25.562;2022-07-23T14:29:19;10.13;;;9.38;;
54899;SDS011;40801;41.924;25.562;2022-07-23T14:31:44;9.60;;;8.70;;
54899;SDS011;40801;41.924;25.562;2022-07-23T14:34:10;9.02;;;8.38;;
54899;SDS011;40801;41.924;25.562;2022-07-23T14:36:36;8.13;;;7.30;;
54899;SDS011;40801;41.924;25.562;2022-07-23T14:39:03;9.90;;;7.13;;
54899;SDS011;40801;41.924;25.562;2022-07-23T14:41:28;9.60;;;8.80;;
54899;SDS011;40801;41.924;25.562;2022-07-23T14:43:55;9.57;;;8.80;;
54899;SDS011;40801;41.924;25.562;2022-07-23T14:46:21;9.47;;;8.93;;
54899;SDS011;40801;41.924;25.562;2022-07-23T14:48:46;9.35;;;8.85;;
54899;SDS011;40801;41.924;25.562;2022-07-23T14:51:12;10.25;;;9.40;;
54899;SDS011;40801;41.924;25.562;2022-07-23T14:53:37;12.43;;;8.82;;
54899;SDS011;40801;41.924;25.562;2022-07-23T14:56:03;9.18;;;8.35;;
54899;SDS011;40801;41.924;25.562;2022-07-23T14:58:29;9.30;;;8.57;;
54899;SDS011;40801;41.924;25.562;2022-07-23T15:00:55;11.27;;;10.35;;
54899;SDS011;40801;41.924;25.562;2022-07-23T15:03:20;10.35;;;9.48;;
54899;SDS011;40801;41.924;25.562;2022-07-23T15:05:45;9.70;;;9.00;;
54899;SDS011;40801;41.924;25.562;2022-07-23T15:08:11;11.68;;;10.15;;
54899;SDS011;40801;41.924;25.562;2022-07-23T15:10:36;10.65;;;9.82;;